createdAt,value
2023-01-11T04:45:28.201Z,694.60
2023-01-11T04:47:56.536Z,696.55
2023-01-11T04:50:24.354Z,695.63
2023-01-11T04:52:51.869Z,695.80
2023-01-11T04:55:19.234Z,698.83
2023-01-11T04:57:46.814Z,699.13
2023-01-11T05:00:13.995Z,697.90
2023-01-11T05:02:40.642Z,706.60
2023-01-11T05:05:08.118Z,709.55
2023-01-11T05:07:35.035Z,709.60
2023-01-11T05:10:02.596Z,708.80
2023-01-11T05:12:29.320Z,710.88
2023-01-11T05:14:57.089Z,719.20
2023-01-11T05:17:23.728Z,727.45
2023-01-11T05:19:50.380Z,719.60
2023-01-11T05:22:17.026Z,719.47
2023-01-11T05:24:43.692Z,714.97
2023-01-11T05:27:10.507Z,721.28
2023-01-11T05:29:37.265Z,716.05
2023-01-11T05:32:04.061Z,722.25
2023-01-11T05:34:30.689Z,714.10
2023-01-11T05:36:57.349Z,720.40
2023-01-11T05:39:24.181Z,725.67
2023-01-11T05:41:50.825Z,721.35
2023-01-11T05:44:36.601Z,723.55
2023-01-11T05:47:04.301Z,717.87
2023-01-11T05:49:31.220Z,725.55
2023-01-11T05:51:57.835Z,723.35
2023-01-11T05:54:24.540Z,720.90
2023-01-11T05:56:51.215Z,728.37
2023-01-11T05:59:17.870Z,721.85
2023-01-11T06:01:44.602Z,728.47
2023-01-11T06:04:11.345Z,735.67
2023-01-11T06:06:38.079Z,731.17
2023-01-11T06:09:04.757Z,727.67
2023-01-11T06:11:31.415Z,731.67
2023-01-11T06:13:58.060Z,733.17
2023-01-11T06:16:24.765Z,729.65
2023-01-11T06:18:52.985Z,731.88
2023-01-11T06:21:20.745Z,746.65
2023-01-11T06:23:50.711Z,737.20
2023-01-11T06:26:19.631Z,741.15
2023-01-11T06:28:46.537Z,743.47
2023-01-11T06:31:16.072Z,747.60
2023-01-11T06:33:43.797Z,741.45
2023-01-11T06:36:12.339Z,742.63
2023-01-11T06:38:39.553Z,744.95
2023-01-11T06:41:10.448Z,742.03
2023-01-11T06:43:40.991Z,746.67
2023-01-11T06:46:11.861Z,740.80
2023-01-11T06:48:38.607Z,748.40
2023-01-11T06:51:05.348Z,750.25
2023-01-11T06:53:31.971Z,747.33
2023-01-11T06:55:58.937Z,745.75
2023-01-11T06:58:26.705Z,755.40
2023-01-11T07:00:55.581Z,738.95
2023-01-11T07:03:26.099Z,744.70
2023-01-11T07:05:56.791Z,741.10
2023-01-11T07:08:26.573Z,741.63
2023-01-11T07:10:54.303Z,741.78
2023-01-11T07:13:21.268Z,736.78
2023-01-11T07:15:50.411Z,730.87
2023-01-11T07:18:18.829Z,744.85
2023-01-11T07:20:45.507Z,741.70
2023-01-11T07:23:12.277Z,745.03
2023-01-11T07:25:39.011Z,735.05
2023-01-11T07:28:08.425Z,739.75
2023-01-11T07:30:55.348Z,742.17
2023-01-11T07:33:23.335Z,741.90
2023-01-11T07:35:50.107Z,740.55
2023-01-11T07:38:16.845Z,739.03
2023-01-11T07:40:43.659Z,743.88
2023-01-11T07:43:15.036Z,753.07
2023-01-11T07:45:49.103Z,741.22
2023-01-11T07:48:20.930Z,751.33
2023-01-11T07:50:48.720Z,757.72
2023-01-11T07:53:15.486Z,752.67
2023-01-11T07:55:42.614Z,755.08
2023-01-11T07:58:11.957Z,751.83
2023-01-11T08:00:40.643Z,757.55
2023-01-11T08:03:07.698Z,751.07
2023-01-11T08:05:34.683Z,756.38
2023-01-11T08:08:01.801Z,756.13
2023-01-11T08:10:28.510Z,764.55
2023-01-11T08:13:14.058Z,779.15
2023-01-11T08:15:43.726Z,766.58
2023-01-11T08:18:11.747Z,777.87
2023-01-11T08:20:39.591Z,770.80
2023-01-11T08:23:08.230Z,779.33
2023-01-11T08:25:35.104Z,773.87
2023-01-11T08:28:04.006Z,783.45
2023-01-11T08:30:30.616Z,781.70
2023-01-11T08:32:57.727Z,794.67
2023-01-11T08:35:25.736Z,782.75
2023-01-11T08:37:52.624Z,786.83
2023-01-11T08:40:21.033Z,790.58
2023-01-11T08:42:49.039Z,793.40
2023-01-11T08:45:16.004Z,799.67
2023-01-11T08:47:42.628Z,812.15
2023-01-11T08:50:10.089Z,828.08
2023-01-11T08:52:36.748Z,842.83
2023-01-11T08:55:03.764Z,849.85
2023-01-11T08:57:30.397Z,854.88
2023-01-11T08:59:56.995Z,851.30
2023-01-11T09:02:23.689Z,853.90
2023-01-11T09:04:50.330Z,849.42
2023-01-11T09:07:17.161Z,866.50
2023-01-11T09:09:43.782Z,851.47
2023-01-11T09:12:10.449Z,850.03
2023-01-11T09:14:37.112Z,852.25
2023-01-11T09:17:03.790Z,843.40
2023-01-11T09:19:30.474Z,844.95
2023-01-11T09:21:58.079Z,838.30
2023-01-11T09:24:24.845Z,842.55
2023-01-11T09:26:51.591Z,848.93
2023-01-11T09:29:19.276Z,849.13
2023-01-11T09:31:46.214Z,854.17
2023-01-11T09:34:13.212Z,859.13
2023-01-11T09:36:40.321Z,867.97
2023-01-11T09:39:11.689Z,863.90
2023-01-11T09:41:43.056Z,855.88
2023-01-11T09:44:16.499Z,851.15
2023-01-11T09:46:55.945Z,844.17
2023-01-11T09:49:30.787Z,838.65
2023-01-11T09:52:24.003Z,823.07
2023-01-11T09:54:51.794Z,828.78
2023-01-11T09:57:30.993Z,824.17
2023-01-11T10:00:17.656Z,821.83
2023-01-11T10:03:28.447Z,828.08
2023-01-11T10:06:09.707Z,832.53
2023-01-11T10:18:39.109Z,828.42
2023-01-11T10:18:46.424Z,833.33
2023-01-11T10:21:17.227Z,822.67
2023-01-11T10:24:02.561Z,829.92
2023-01-11T10:26:37.241Z,827.13
2023-01-11T10:29:18.744Z,828.72
2023-01-11T10:32:14.433Z,826.75
2023-01-11T10:35:14.399Z,828.70
2023-01-11T10:37:55.095Z,826.63
2023-01-11T10:40:57.571Z,810.30
2023-01-11T10:43:25.618Z,825.75
2023-01-11T10:45:55.548Z,819.70
2023-01-11T10:48:28.264Z,805.05
2023-01-11T10:51:05.076Z,800.53
2023-01-11T10:53:34.886Z,812.70
2023-01-11T10:56:05.144Z,797.83
2023-01-11T10:58:47.053Z,803.30
2023-01-11T11:01:41.969Z,812.05
2023-01-11T11:04:19.739Z,796.67
2023-01-11T11:06:59.746Z,814.77
2023-01-11T11:09:44.945Z,818.55
2023-01-11T11:12:38.743Z,811.63
2023-01-11T11:15:21.081Z,826.65
2023-01-11T11:17:52.960Z,824.22
2023-01-11T11:20:27.929Z,835.10
2023-01-11T11:22:56.674Z,823.77
2023-01-11T11:25:29.685Z,831.17
2023-01-11T11:28:01.813Z,831.58
2023-01-11T11:30:33.736Z,824.33
2023-01-11T11:33:20.270Z,830.78
2023-01-11T11:35:56.676Z,818.88
2023-01-11T11:38:26.756Z,833.58
2023-01-11T11:41:17.190Z,813.80
2023-01-11T11:43:46.857Z,814.70
2023-01-11T11:46:20.115Z,818.10
2023-01-11T11:49:11.092Z,817.38
2023-01-11T11:51:38.920Z,816.10
2023-01-11T11:54:05.838Z,823.67
2023-01-11T11:56:35.056Z,814.85
2023-01-11T11:59:17.267Z,818.25
2023-01-11T12:01:49.395Z,825.03
2023-01-11T12:04:19.597Z,810.50
2023-01-11T12:07:04.566Z,802.00
2023-01-11T12:09:33.216Z,796.00
2023-01-11T12:12:00.592Z,807.97
2023-01-11T12:14:30.696Z,800.45
2023-01-11T12:17:00.815Z,789.78
2023-01-11T12:19:34.865Z,791.72
2023-01-11T12:22:25.823Z,788.85
2023-01-11T12:25:14.076Z,798.10
2023-01-11T12:27:49.071Z,796.92
2023-01-11T12:30:22.062Z,790.60
2023-01-11T12:33:06.703Z,782.30
2023-01-11T12:35:45.425Z,776.05
2023-01-11T12:38:21.775Z,773.28
2023-01-11T12:40:59.881Z,773.17
2023-01-11T12:44:17.379Z,765.78
2023-01-11T12:47:13.167Z,761.15
2023-01-11T12:49:48.729Z,770.35
2023-01-11T12:52:43.083Z,763.37
2023-01-11T12:55:40.632Z,779.80
2023-01-11T12:58:14.517Z,776.77
2023-01-11T13:00:53.304Z,764.33
2023-01-11T13:03:41.119Z,765.65
2023-01-11T13:06:12.400Z,774.63
2023-01-11T13:09:05.894Z,771.72
2023-01-11T13:11:55.542Z,775.90
2023-01-11T13:14:46.223Z,769.83
2023-01-11T13:17:25.029Z,769.55
2023-01-11T13:19:51.703Z,772.63
2023-01-11T13:22:23.171Z,780.40
2023-01-11T13:24:51.188Z,782.40
2023-01-11T13:27:24.475Z,780.03
2023-01-11T13:29:55.326Z,779.97
2023-01-11T13:32:25.988Z,788.10
2023-01-11T13:35:01.919Z,781.15
2023-01-11T13:37:42.930Z,786.00
2023-01-11T13:40:18.219Z,787.60
2023-01-11T13:42:53.222Z,786.17
2023-01-11T13:45:55.584Z,790.97
2023-01-11T13:48:32.359Z,792.72
2023-01-11T13:51:13.180Z,794.60
2023-01-11T13:53:56.559Z,787.43
2023-01-11T13:56:34.441Z,799.05
2023-01-11T13:59:22.915Z,795.58
2023-01-11T14:02:14.044Z,799.92
2023-01-11T14:05:03.037Z,785.85
2023-01-11T14:07:48.283Z,785.25
2023-01-11T14:10:30.095Z,776.00
2023-01-11T14:13:11.572Z,784.97
2023-01-11T14:15:56.919Z,780.60
2023-01-11T14:19:14.582Z,777.45
2023-01-11T14:22:02.833Z,772.10
2023-01-11T14:24:32.391Z,778.55
2023-01-11T14:27:18.217Z,772.67
2023-01-11T14:30:01.310Z,777.70
2023-01-11T14:33:06.869Z,776.00
2023-01-11T14:36:11.980Z,778.15
2023-01-11T14:38:59.814Z,766.25
2023-01-11T14:42:01.596Z,772.25
2023-01-11T14:44:55.954Z,776.42
2023-01-11T14:47:36.871Z,782.67
2023-01-11T14:50:21.652Z,785.22
2023-01-11T14:52:50.953Z,772.30
2023-01-11T14:55:20.096Z,779.30
2023-01-11T14:57:55.587Z,777.85
2023-01-11T15:00:22.190Z,780.10
2023-01-11T15:03:01.029Z,776.28
2023-01-11T15:05:38.035Z,776.67
2023-01-11T15:08:13.903Z,784.30
2023-01-11T15:10:57.436Z,788.40
2023-01-11T15:13:27.087Z,786.33
2023-01-11T15:16:36.317Z,786.47
2023-01-11T15:19:08.780Z,780.38
2023-01-11T15:21:41.833Z,778.97
2023-01-11T15:24:28.697Z,779.47
2023-01-11T15:26:58.036Z,778.75
2023-01-11T15:29:31.985Z,779.03
2023-01-11T15:32:01.290Z,775.08
2023-01-11T15:34:31.059Z,770.78
2023-01-11T15:37:01.258Z,770.35
2023-01-11T15:39:44.059Z,766.22
2023-01-11T15:42:16.493Z,766.10
2023-01-11T15:45:04.626Z,771.47
2023-01-11T15:48:10.527Z,765.25
2023-01-11T15:51:07.951Z,765.97
2023-01-11T15:54:10.234Z,756.70
2023-01-11T15:57:01.299Z,762.72
2023-01-11T16:00:04.855Z,757.45
2023-01-11T16:02:46.394Z,765.42
2023-01-11T16:05:19.575Z,759.90
2023-01-11T16:08:04.881Z,761.90
2023-01-11T16:10:44.442Z,756.40
2023-01-11T16:13:29.208Z,757.97
2023-01-11T16:16:22.257Z,754.28
2023-01-11T16:18:54.538Z,742.95
2023-01-11T16:21:37.467Z,746.07
2023-01-11T16:24:26.738Z,748.40
2023-01-11T16:26:56.808Z,737.67
2023-01-11T16:29:26.325Z,750.88
2023-01-11T16:31:58.112Z,742.90
2023-01-11T16:34:27.179Z,747.50
2023-01-11T16:36:53.758Z,748.95
2023-01-11T16:39:29.685Z,749.17
2023-01-11T16:42:03.781Z,740.15
2023-01-11T16:44:51.356Z,745.43
2023-01-11T16:47:19.732Z,746.97
2023-01-11T16:49:49.450Z,750.90
2023-01-11T16:52:34.742Z,748.03
2023-01-11T16:55:11.533Z,743.10
2023-01-11T16:57:43.940Z,740.42
2023-01-11T17:00:32.666Z,749.80
2023-01-11T17:03:02.119Z,750.83
2023-01-11T17:05:28.825Z,752.55
2023-01-11T17:07:55.391Z,748.15
2023-01-11T17:10:29.968Z,748.08
2023-01-11T17:13:34.742Z,744.42
2023-01-11T17:16:09.885Z,756.08
2023-01-11T17:18:41.421Z,758.67
2023-01-11T17:21:27.110Z,756.07
2023-01-11T17:23:58.671Z,758.08
2023-01-11T17:26:33.239Z,765.58
2023-01-11T17:29:00.644Z,759.83
2023-01-11T17:31:31.815Z,769.90
2023-01-11T17:34:08.677Z,763.60
2023-01-11T17:36:36.424Z,770.95
2023-01-11T17:39:04.541Z,764.40
2023-01-11T17:41:50.500Z,757.15
2023-01-11T17:44:41.888Z,756.08
2023-01-11T17:47:11.951Z,769.30
2023-01-11T17:49:39.353Z,768.90
2023-01-11T17:52:11.382Z,766.50
2023-01-11T17:54:38.097Z,765.67
2023-01-11T17:57:05.444Z,769.88
2023-01-11T17:59:32.174Z,753.10
2023-01-11T18:02:03.752Z,763.30
2023-01-11T18:04:31.672Z,766.60
2023-01-11T18:07:19.039Z,772.03
2023-01-11T18:09:48.489Z,769.08
2023-01-11T18:12:23.036Z,770.93
2023-01-11T18:14:54.183Z,778.27
2023-01-11T18:17:41.992Z,776.58
2023-01-11T18:20:14.577Z,772.40
2023-01-11T18:22:55.929Z,776.87
2023-01-11T18:25:22.564Z,773.60
2023-01-11T18:27:49.621Z,784.23
2023-01-11T18:30:45.614Z,771.53
2023-01-11T18:33:19.571Z,768.83
2023-01-11T18:35:49.017Z,774.13
2023-01-11T18:38:21.478Z,774.28
2023-01-11T18:40:50.251Z,771.75
2023-01-11T18:43:21.231Z,781.88
2023-01-11T18:45:47.949Z,769.10
2023-01-11T18:48:15.475Z,772.17
2023-01-11T18:50:43.807Z,779.40
2023-01-11T18:53:14.378Z,774.47
2023-01-11T18:55:41.486Z,780.13
2023-01-11T18:58:09.708Z,780.85
2023-01-11T19:00:37.361Z,769.67
2023-01-11T19:03:05.497Z,780.58
2023-01-11T19:05:32.230Z,780.93
2023-01-11T19:07:58.854Z,769.58
2023-01-11T19:10:26.739Z,774.90
2023-01-11T19:12:53.497Z,761.30
2023-01-11T19:15:20.094Z,765.10
2023-01-11T19:17:46.749Z,754.38
2023-01-11T19:20:14.125Z,761.40
2023-01-11T19:22:41.501Z,763.05
2023-01-11T19:25:09.567Z,766.85
2023-01-11T19:27:37.337Z,764.90
2023-01-11T19:30:06.036Z,769.72
2023-01-11T19:32:32.684Z,774.13
2023-01-11T19:34:59.654Z,763.25
2023-01-11T19:37:27.671Z,766.35
2023-01-11T19:39:54.343Z,762.45
2023-01-11T19:42:22.116Z,764.22
2023-01-11T19:44:48.857Z,758.80
2023-01-11T19:47:15.604Z,764.00
2023-01-11T19:49:43.292Z,763.92
2023-01-11T19:52:18.759Z,762.22
2023-01-11T19:54:46.597Z,773.08
2023-01-11T19:57:15.678Z,761.30
2023-01-11T19:59:42.501Z,754.30
2023-01-11T20:02:11.507Z,757.22
2023-01-11T20:04:38.700Z,767.97
2023-01-11T20:07:06.152Z,757.95
2023-01-11T20:09:32.805Z,760.17
2023-01-11T20:11:59.529Z,756.53
2023-01-11T20:14:26.533Z,746.55
2023-01-11T20:16:53.138Z,756.92
2023-01-11T20:19:19.797Z,748.10
2023-01-11T20:21:46.411Z,758.80
2023-01-11T20:24:14.349Z,752.70
2023-01-11T20:26:41.887Z,758.13
2023-01-11T20:29:08.638Z,752.15
2023-01-11T20:31:35.767Z,755.60
2023-01-11T20:34:09.859Z,756.92
2023-01-11T20:36:36.970Z,751.63
2023-01-11T20:39:05.031Z,757.08
2023-01-11T20:41:46.632Z,761.50
2023-01-11T20:44:18.748Z,759.10
2023-01-11T20:46:48.002Z,754.70
2023-01-11T20:49:15.297Z,759.08
2023-01-11T20:51:42.819Z,754.97
2023-01-11T20:54:09.756Z,755.83
2023-01-11T20:56:38.487Z,754.05
2023-01-11T20:59:07.122Z,758.57
2023-01-11T21:01:34.349Z,741.03
2023-01-11T21:04:03.884Z,755.30
2023-01-11T21:06:34.043Z,756.03
2023-01-11T21:09:02.405Z,762.83
2023-01-11T21:11:31.121Z,753.38
2023-01-11T21:13:59.383Z,761.15
2023-01-11T21:16:27.984Z,753.28
2023-01-11T21:19:00.359Z,749.47
2023-01-11T21:21:28.320Z,753.75
2023-01-11T21:23:57.305Z,743.75
2023-01-11T21:26:25.091Z,745.67
2023-01-11T21:28:55.546Z,752.88
2023-01-11T21:31:22.836Z,752.45
2023-01-11T21:33:50.307Z,745.38
2023-01-11T21:36:20.238Z,748.55
2023-01-11T21:38:46.894Z,741.25
2023-01-11T21:41:19.416Z,747.30
2023-01-11T21:43:46.235Z,744.20
2023-01-11T21:46:13.142Z,742.08
2023-01-11T21:48:39.785Z,740.28
2023-01-11T21:51:09.878Z,730.85
2023-01-11T21:53:36.958Z,736.10
2023-01-11T21:56:05.416Z,735.58
2023-01-11T21:58:32.904Z,732.00
2023-01-11T22:00:59.858Z,729.63
2023-01-11T22:03:28.288Z,731.70
2023-01-11T22:06:01.673Z,725.03
2023-01-11T22:08:28.657Z,740.63
2023-01-11T22:10:57.196Z,737.80
2023-01-11T22:13:23.896Z,737.80
2023-01-11T22:15:50.650Z,733.70
2023-01-11T22:18:17.267Z,721.55
2023-01-11T22:20:43.928Z,724.10
2023-01-11T22:23:10.564Z,719.10
2023-01-11T22:25:37.208Z,718.23
2023-01-11T22:28:04.482Z,730.08
2023-01-11T22:30:31.118Z,712.70
2023-01-11T22:33:00.336Z,733.45
2023-01-11T22:35:26.956Z,737.25
2023-01-11T22:37:53.586Z,734.50
2023-01-11T22:40:20.169Z,744.05
2023-01-11T22:42:46.803Z,750.35
2023-01-11T22:45:13.427Z,749.17
2023-01-11T22:47:40.079Z,745.83
2023-01-11T22:50:07.032Z,749.58
2023-01-11T22:52:33.729Z,742.25
2023-01-11T22:55:00.379Z,736.92
2023-01-11T22:57:27.048Z,731.15
2023-01-11T22:59:53.674Z,736.88
2023-01-11T23:02:20.320Z,743.42
2023-01-11T23:04:46.961Z,733.23
2023-01-11T23:07:13.584Z,740.45
2023-01-11T23:09:40.187Z,742.72
2023-01-11T23:12:25.326Z,737.25
2023-01-11T23:14:51.970Z,735.72
2023-01-11T23:17:19.343Z,740.90
2023-01-11T23:19:45.994Z,732.95
2023-01-11T23:22:15.618Z,735.63
2023-01-11T23:24:42.236Z,743.70
2023-01-11T23:27:08.876Z,740.42
2023-01-11T23:29:35.841Z,740.03
2023-01-11T23:32:02.683Z,742.83
2023-01-11T23:34:29.349Z,742.13
2023-01-11T23:36:55.968Z,745.55
2023-01-11T23:39:23.642Z,738.78
2023-01-11T23:42:09.218Z,739.00
2023-01-11T23:44:35.851Z,745.38
2023-01-11T23:47:20.986Z,750.65
2023-01-11T23:49:49.493Z,745.47
2023-01-11T23:52:17.562Z,740.70
2023-01-11T23:54:45.554Z,735.58
2023-01-11T23:57:13.372Z,718.05
2023-01-11T23:59:41.382Z,727.22
